createdAt,value
2023-03-18T00:02:22.061Z,8.74
2023-03-18T00:04:52.968Z,10.07
2023-03-18T00:07:22.901Z,8.93
2023-03-18T00:09:53.017Z,8.36
2023-03-18T00:12:23.792Z,8.17
2023-03-18T00:14:53.522Z,9.12
2023-03-18T00:17:23.895Z,8.93
2023-03-18T00:19:54.099Z,8.17
2023-03-18T00:22:24.718Z,7.98
2023-03-18T00:24:54.858Z,7.98
2023-03-18T00:27:24.971Z,8.36
2023-03-18T00:29:54.848Z,8.17
2023-03-18T00:32:27.970Z,8.36
2023-03-18T00:34:56.894Z,8.93
2023-03-18T00:37:33.385Z,8.55
2023-03-18T00:40:17.225Z,9.12
2023-03-18T00:42:57.595Z,9.12
2023-03-18T00:45:28.220Z,8.93
2023-03-18T00:47:58.216Z,9.12
2023-03-18T00:50:28.498Z,9.31
2023-03-18T00:52:59.641Z,8.36
2023-03-18T00:55:29.496Z,7.41
2023-03-18T00:57:59.324Z,8.36
2023-03-18T01:00:30.062Z,7.41
2023-03-18T01:03:00.110Z,8.36
2023-03-18T01:05:31.557Z,8.17
2023-03-18T01:08:03.067Z,7.79
2023-03-18T01:10:34.313Z,8.17
2023-03-18T01:13:04.369Z,8.17
2023-03-18T01:15:34.770Z,8.74
2023-03-18T01:18:04.802Z,8.36
2023-03-18T01:20:35.832Z,8.17
2023-03-18T01:23:08.857Z,9.12
2023-03-18T01:25:40.007Z,7.79
2023-03-18T01:28:10.671Z,7.98
2023-03-18T01:30:41.120Z,8.74
2023-03-18T01:33:11.565Z,7.22
2023-03-18T01:35:42.938Z,7.41
2023-03-18T01:38:12.769Z,7.22
2023-03-18T01:40:42.738Z,7.79
2023-03-18T01:43:18.801Z,8.55
2023-03-18T01:45:53.477Z,8.36
2023-03-18T01:48:28.510Z,7.79
2023-03-18T01:51:08.948Z,9.50
2023-03-18T01:53:46.022Z,8.36
2023-03-18T01:56:18.451Z,8.17
2023-03-18T01:58:55.462Z,7.60
2023-03-18T02:02:12.276Z,7.41
2023-03-18T02:04:56.460Z,7.60
2023-03-18T02:07:31.783Z,7.41
2023-03-18T02:10:04.557Z,9.31
2023-03-18T02:12:38.459Z,8.74
2023-03-18T02:15:11.885Z,8.55
2023-03-18T02:17:51.379Z,9.50
2023-03-18T02:20:55.749Z,7.79
2023-03-18T02:23:52.927Z,8.55
2023-03-18T02:26:44.026Z,8.93
2023-03-18T02:29:18.519Z,9.69
2023-03-18T02:31:51.020Z,8.55
2023-03-18T02:34:25.706Z,7.79
2023-03-18T02:36:57.269Z,9.50
2023-03-18T02:39:30.018Z,7.98
2023-03-18T02:42:01.082Z,12.16
2023-03-18T02:44:32.327Z,11.21
2023-03-18T02:47:11.681Z,9.50
2023-03-18T02:49:41.472Z,10.45
2023-03-18T02:52:12.066Z,8.93
2023-03-18T02:54:42.108Z,8.17
2023-03-18T02:57:11.869Z,8.55
2023-03-18T02:59:41.944Z,7.98
2023-03-18T03:02:11.914Z,7.41
2023-03-18T03:04:43.359Z,9.50
2023-03-18T03:07:13.430Z,8.74
2023-03-18T03:09:43.651Z,9.12
2023-03-18T03:12:19.012Z,8.55
2023-03-18T03:14:48.882Z,8.93
2023-03-18T03:17:18.726Z,8.36
2023-03-18T03:19:47.131Z,8.93
2023-03-18T03:22:17.317Z,8.55
2023-03-18T03:24:46.960Z,8.55
2023-03-18T03:27:15.633Z,8.55
2023-03-18T03:29:45.636Z,8.74
2023-03-18T03:32:15.953Z,8.36
2023-03-18T03:34:46.642Z,7.60
2023-03-18T03:37:16.817Z,8.17
2023-03-18T03:39:46.687Z,8.93
2023-03-18T03:42:16.542Z,9.12
2023-03-18T03:44:47.392Z,8.55
2023-03-18T03:47:17.347Z,8.36
2023-03-18T03:49:47.734Z,7.98
2023-03-18T03:52:19.907Z,8.93
2023-03-18T03:54:50.765Z,8.55
2023-03-18T03:57:20.896Z,7.22
2023-03-18T03:59:51.814Z,8.17
2023-03-18T04:02:23.836Z,8.74
2023-03-18T04:04:54.567Z,8.17
2023-03-18T04:07:24.409Z,7.79
2023-03-18T04:09:55.893Z,7.60
2023-03-18T04:12:25.831Z,8.55
2023-03-18T04:14:55.995Z,8.93
2023-03-18T04:17:25.961Z,7.98
2023-03-18T04:19:54.293Z,7.98
2023-03-18T04:22:24.042Z,7.03
2023-03-18T04:24:51.256Z,8.17
2023-03-18T04:27:20.431Z,7.79
2023-03-18T04:29:48.624Z,7.22
2023-03-18T04:32:17.215Z,7.60
2023-03-18T04:34:45.151Z,7.79
2023-03-18T04:37:14.615Z,8.17
2023-03-18T04:39:42.410Z,7.03
2023-03-18T04:42:13.671Z,8.93
2023-03-18T04:44:42.043Z,7.41
2023-03-18T04:47:10.349Z,7.60
2023-03-18T04:49:38.684Z,7.60
2023-03-18T04:52:08.714Z,8.74
2023-03-18T04:54:39.621Z,8.17
2023-03-18T04:57:09.643Z,7.79
2023-03-18T04:59:39.512Z,8.17
2023-03-18T05:02:09.729Z,7.98
2023-03-18T05:04:38.876Z,7.98
2023-03-18T05:07:06.408Z,7.60
2023-03-18T05:09:34.740Z,7.22
2023-03-18T05:12:03.037Z,9.31
2023-03-18T05:14:31.924Z,8.74
2023-03-18T05:17:00.069Z,7.79
2023-03-18T05:19:28.249Z,8.17
2023-03-18T05:21:56.716Z,7.98
2023-03-18T05:24:25.073Z,7.41
2023-03-18T05:26:54.846Z,7.79
2023-03-18T05:29:21.982Z,8.55
2023-03-18T05:31:50.368Z,8.17
2023-03-18T05:34:19.137Z,7.60
2023-03-18T05:36:48.207Z,8.17
2023-03-18T05:39:16.211Z,8.17
2023-03-18T05:41:44.881Z,8.17
2023-03-18T05:44:12.437Z,7.79
2023-03-18T05:46:40.923Z,7.79
2023-03-18T05:49:10.354Z,7.41
2023-03-18T05:51:38.009Z,8.55
2023-03-18T05:54:06.162Z,8.55
2023-03-18T05:56:34.966Z,7.98
2023-03-18T05:59:03.563Z,8.36
2023-03-18T06:01:33.067Z,7.98
2023-03-18T06:04:00.951Z,7.79
2023-03-18T06:06:29.011Z,9.12
2023-03-18T06:08:56.964Z,8.17
2023-03-18T06:11:25.287Z,8.36
2023-03-18T06:13:53.824Z,8.36
2023-03-18T06:16:23.581Z,8.93
2023-03-18T06:18:50.748Z,8.74
2023-03-18T06:21:19.780Z,8.74
2023-03-18T06:23:48.083Z,9.12
2023-03-18T06:26:16.603Z,8.74
2023-03-18T06:28:46.102Z,9.12
2023-03-18T06:31:15.286Z,8.17
2023-03-18T06:33:43.710Z,8.55
2023-03-18T06:36:12.788Z,9.31
2023-03-18T06:38:40.319Z,8.93
2023-03-18T06:41:08.982Z,8.74
2023-03-18T06:43:37.638Z,7.98
2023-03-18T06:46:05.559Z,8.17
2023-03-18T06:48:34.589Z,8.55
2023-03-18T06:51:02.256Z,8.55
2023-03-18T06:53:30.781Z,8.55
2023-03-18T06:55:59.330Z,8.17
2023-03-18T06:58:27.721Z,8.74
2023-03-18T07:00:56.302Z,8.36
2023-03-18T07:03:26.157Z,8.74
2023-03-18T07:05:56.108Z,8.36
2023-03-18T07:08:24.588Z,8.74
2023-03-18T07:10:56.284Z,7.98
2023-03-18T07:13:26.749Z,8.74
2023-03-18T07:15:57.234Z,8.55
2023-03-18T07:18:28.273Z,8.36
2023-03-18T07:20:57.875Z,9.31
2023-03-18T07:23:27.636Z,8.74
2023-03-18T07:25:57.683Z,7.79
2023-03-18T07:28:27.843Z,9.50
2023-03-18T07:30:57.951Z,9.50
2023-03-18T07:33:27.564Z,8.55
2023-03-18T07:35:57.744Z,9.12
2023-03-18T07:38:27.654Z,9.69
2023-03-18T07:40:57.997Z,8.17
2023-03-18T07:43:27.981Z,8.93
2023-03-18T07:45:58.678Z,9.31
2023-03-18T07:48:28.486Z,9.31
2023-03-18T07:50:59.519Z,9.31
2023-03-18T07:53:29.402Z,9.12
2023-03-18T07:55:59.194Z,9.50
2023-03-18T07:58:29.652Z,8.93
2023-03-18T08:00:59.942Z,9.12
2023-03-18T08:03:29.701Z,7.98
2023-03-18T08:05:59.595Z,9.50
2023-03-18T08:08:29.642Z,9.31
2023-03-18T08:11:00.523Z,8.74
2023-03-18T08:13:30.360Z,9.12
2023-03-18T08:16:00.176Z,6.46
2023-03-18T08:18:30.594Z,9.50
2023-03-18T08:21:01.054Z,9.31
2023-03-18T08:23:30.811Z,8.36
2023-03-18T08:26:00.851Z,8.74
2023-03-18T08:28:30.937Z,8.74
2023-03-18T08:31:01.313Z,8.17
2023-03-18T08:33:31.824Z,8.36
2023-03-18T08:36:01.836Z,8.74
2023-03-18T08:38:31.751Z,9.12
2023-03-18T08:41:01.673Z,9.31
2023-03-18T08:43:31.510Z,9.12
2023-03-18T08:46:01.349Z,8.36
2023-03-18T08:48:31.216Z,8.93
2023-03-18T08:51:09.290Z,9.31
2023-03-18T08:53:38.484Z,10.07
2023-03-18T08:56:07.727Z,9.12
2023-03-18T08:58:36.144Z,8.74
2023-03-18T09:01:05.336Z,9.50
2023-03-18T09:03:36.131Z,8.93
2023-03-18T09:06:03.375Z,9.12
2023-03-18T09:08:32.583Z,7.98
2023-03-18T09:11:00.410Z,8.17
2023-03-18T09:13:28.277Z,8.93
2023-03-18T09:15:56.685Z,9.31
2023-03-18T09:18:25.174Z,8.93
2023-03-18T09:20:53.622Z,8.17
2023-03-18T09:23:22.474Z,8.74
2023-03-18T09:25:50.373Z,8.74
2023-03-18T09:28:18.843Z,8.74
2023-03-18T09:30:48.311Z,9.88
2023-03-18T09:33:16.155Z,8.93
2023-03-18T09:35:44.725Z,7.79
2023-03-18T09:38:19.667Z,10.45
2023-03-18T09:41:03.204Z,8.74
2023-03-18T09:43:44.773Z,8.55
2023-03-18T09:46:17.547Z,9.69
2023-03-18T09:49:34.912Z,8.36
2023-03-18T09:52:18.441Z,9.12
2023-03-18T09:55:12.545Z,8.74
2023-03-18T09:57:48.190Z,9.88
2023-03-18T10:00:38.648Z,9.69
2023-03-18T10:03:37.911Z,7.98
2023-03-18T10:06:24.642Z,9.31
2023-03-18T10:09:35.337Z,9.12
2023-03-18T10:12:31.702Z,8.74
2023-03-18T10:15:13.509Z,9.12
2023-03-18T10:17:43.346Z,10.26
2023-03-18T10:20:52.612Z,9.31
2023-03-18T10:23:44.616Z,8.74
2023-03-18T10:26:39.454Z,8.55
2023-03-18T10:29:47.065Z,8.36
2023-03-18T10:32:51.035Z,8.17
2023-03-18T10:35:31.623Z,8.36
2023-03-18T10:38:26.393Z,8.74
2023-03-18T10:40:56.317Z,8.36
2023-03-18T10:43:31.784Z,8.74
2023-03-18T10:46:06.160Z,8.17
2023-03-18T10:48:44.767Z,8.74
2023-03-18T10:51:37.042Z,8.74
2023-03-18T10:54:27.072Z,8.55
2023-03-18T10:56:56.893Z,7.79
2023-03-18T10:59:29.949Z,9.50
2023-03-18T11:02:05.470Z,8.17
2023-03-18T11:04:45.965Z,8.74
2023-03-18T11:07:25.811Z,8.93
2023-03-18T11:10:18.072Z,8.74
2023-03-18T11:12:47.831Z,9.12
2023-03-18T11:15:20.829Z,8.55
2023-03-18T11:17:51.892Z,8.36
2023-03-18T11:20:43.061Z,8.36
2023-03-18T11:23:56.639Z,9.12
2023-03-18T11:26:30.145Z,8.74
2023-03-18T11:29:13.192Z,8.55
2023-03-18T11:31:59.705Z,8.74
2023-03-18T11:34:32.958Z,7.60
2023-03-18T11:37:06.297Z,8.17
2023-03-18T11:39:40.783Z,8.36
2023-03-18T11:42:22.577Z,8.74
2023-03-18T11:45:03.427Z,8.17
2023-03-18T11:47:36.543Z,11.59
2023-03-18T11:50:19.936Z,9.12
2023-03-18T11:53:17.141Z,8.55
2023-03-18T11:56:01.381Z,7.60
2023-03-18T11:59:05.841Z,9.12
2023-03-18T12:01:59.838Z,6.84
2023-03-18T12:04:59.224Z,8.93
2023-03-18T12:07:47.642Z,7.41
2023-03-18T12:10:47.187Z,6.84
2023-03-18T12:13:50.496Z,6.84
2023-03-18T12:16:45.339Z,8.36
2023-03-18T12:19:33.017Z,9.12
2023-03-18T12:22:33.748Z,29.45
2023-03-18T12:25:13.194Z,11.59
2023-03-18T12:28:08.542Z,29.83
2023-03-18T12:30:53.212Z,11.21
2023-03-18T12:33:42.926Z,13.49
2023-03-18T12:36:25.992Z,12.16
2023-03-18T12:39:40.280Z,10.45
2023-03-18T12:42:23.661Z,9.12
2023-03-18T12:45:02.136Z,8.74
2023-03-18T12:47:56.188Z,8.74
2023-03-18T12:50:41.976Z,8.17
2023-03-18T12:53:27.474Z,8.17
2023-03-18T12:56:02.368Z,7.22
2023-03-18T12:58:41.310Z,8.36
2023-03-18T13:01:24.180Z,7.41
2023-03-18T13:04:11.866Z,7.98
2023-03-18T13:06:52.573Z,8.36
2023-03-18T13:09:43.669Z,7.60
2023-03-18T13:12:41.592Z,7.22
2023-03-18T13:15:27.159Z,7.79
2023-03-18T13:18:02.782Z,8.36
2023-03-18T13:20:39.967Z,7.79
2023-03-18T13:23:48.760Z,8.36
2023-03-18T13:26:37.316Z,7.41
2023-03-18T13:29:43.454Z,7.98
2023-03-18T13:32:57.343Z,8.17
2023-03-18T13:35:50.662Z,7.22
2023-03-18T13:39:11.546Z,6.65
2023-03-18T13:42:19.193Z,7.03
2023-03-18T13:45:04.914Z,6.65
2023-03-18T13:47:38.869Z,7.60
2023-03-18T13:50:20.725Z,7.03
2023-03-18T13:52:53.510Z,7.22
2023-03-18T13:55:49.781Z,6.08
2023-03-18T13:58:22.650Z,6.46
2023-03-18T14:00:55.364Z,5.32
2023-03-18T14:03:29.990Z,5.51
2023-03-18T14:06:09.150Z,5.32
2023-03-18T14:08:38.805Z,5.32
2023-03-18T14:11:17.543Z,5.70
2023-03-18T14:13:47.281Z,6.27
2023-03-18T14:16:28.161Z,5.89
2023-03-18T14:19:06.788Z,6.65
2023-03-18T14:21:49.101Z,7.22
2023-03-18T14:24:18.859Z,5.70
2023-03-18T14:27:16.271Z,6.08
2023-03-18T14:29:48.325Z,5.70
2023-03-18T14:32:32.753Z,5.89
2023-03-18T14:35:17.982Z,5.51
2023-03-18T14:39:00.323Z,5.13
2023-03-18T14:41:37.703Z,5.32
2023-03-18T14:44:21.667Z,4.75
2023-03-18T14:47:03.769Z,5.13
2023-03-18T14:49:51.432Z,5.13
2023-03-18T14:52:42.936Z,5.70
2023-03-18T14:55:35.451Z,6.08
2023-03-18T14:58:05.453Z,6.65
2023-03-18T15:00:37.082Z,6.27
2023-03-18T15:03:15.814Z,5.32
2023-03-18T15:05:46.496Z,5.89
2023-03-18T15:08:29.887Z,5.13
2023-03-18T15:11:07.743Z,4.56
2023-03-18T15:13:42.480Z,6.27
2023-03-18T15:16:18.272Z,12.54
2023-03-18T15:18:54.804Z,10.26
2023-03-18T15:21:34.845Z,9.88
2023-03-18T15:24:08.006Z,9.31
2023-03-18T15:26:41.271Z,6.27
2023-03-18T15:29:33.739Z,4.56
2023-03-18T15:32:18.654Z,4.37
2023-03-18T15:34:56.044Z,4.75
2023-03-18T15:37:31.713Z,4.75
2023-03-18T15:40:23.227Z,4.94
2023-03-18T15:43:18.945Z,4.56
2023-03-18T15:45:56.246Z,4.37
2023-03-18T15:48:46.653Z,4.56
2023-03-18T15:51:43.568Z,4.18
2023-03-18T15:54:29.398Z,4.56
2023-03-18T15:57:00.426Z,5.13
2023-03-18T15:59:49.082Z,4.18
2023-03-18T16:02:18.888Z,4.37
2023-03-18T16:04:48.667Z,4.37
2023-03-18T16:07:24.446Z,4.94
2023-03-18T16:09:54.713Z,4.18
2023-03-18T16:12:27.693Z,4.18
2023-03-18T16:14:57.478Z,4.37
2023-03-18T16:17:27.275Z,4.75
2023-03-18T16:19:57.476Z,4.94
2023-03-18T16:22:27.688Z,4.56
2023-03-18T16:24:57.387Z,5.89
2023-03-18T16:27:36.339Z,5.13
2023-03-18T16:30:17.686Z,5.70
2023-03-18T16:32:47.849Z,5.51
2023-03-18T16:35:21.612Z,5.89
2023-03-18T16:37:53.437Z,7.41
2023-03-18T16:40:28.293Z,7.41
2023-03-18T16:42:58.891Z,7.03
2023-03-18T16:45:33.081Z,6.65
2023-03-18T16:48:07.527Z,6.27
2023-03-18T16:50:40.788Z,6.65
2023-03-18T16:53:27.262Z,6.08
2023-03-18T16:56:17.935Z,5.32
2023-03-18T16:58:47.799Z,4.75
2023-03-18T17:01:19.375Z,5.13
2023-03-18T17:03:49.621Z,5.70
2023-03-18T17:06:19.640Z,5.32
2023-03-18T17:08:49.370Z,4.94
2023-03-18T17:11:19.561Z,5.89
2023-03-18T17:13:50.602Z,5.32
2023-03-18T17:16:22.279Z,5.51
2023-03-18T17:18:49.918Z,5.89
2023-03-18T17:21:18.254Z,5.89
2023-03-18T17:23:47.786Z,4.94
2023-03-18T17:26:15.518Z,5.13
2023-03-18T17:28:47.886Z,5.32
2023-03-18T17:31:20.205Z,5.70
2023-03-18T17:33:50.462Z,5.51
2023-03-18T17:36:20.653Z,5.13
2023-03-18T17:38:56.526Z,5.32
2023-03-18T17:41:24.908Z,5.51
2023-03-18T17:43:52.440Z,5.51
2023-03-18T17:46:20.346Z,7.98
2023-03-18T17:48:48.779Z,7.79
2023-03-18T17:51:26.787Z,7.03
2023-03-18T17:53:59.384Z,7.03
2023-03-18T17:56:29.178Z,7.41
2023-03-18T17:58:59.020Z,7.03
2023-03-18T18:01:30.051Z,6.08
2023-03-18T18:04:00.343Z,6.46
2023-03-18T18:06:29.783Z,6.27
2023-03-18T18:09:01.254Z,6.84
2023-03-18T18:11:35.324Z,7.79
2023-03-18T18:14:31.582Z,7.03
2023-03-18T18:17:40.191Z,8.74
2023-03-18T18:20:20.650Z,7.98
2023-03-18T18:22:55.971Z,9.69
2023-03-18T18:25:30.237Z,9.50
2023-03-18T18:28:00.290Z,10.64
2023-03-18T18:30:31.941Z,11.21
2023-03-18T18:33:02.872Z,13.11
2023-03-18T18:35:32.991Z,13.49
2023-03-18T18:38:01.362Z,17.48
2023-03-18T18:40:31.397Z,17.48
2023-03-18T18:42:59.429Z,17.67
2023-03-18T18:45:29.317Z,20.71
2023-03-18T18:47:57.488Z,19.00
2023-03-18T18:50:39.926Z,18.81
2023-03-18T18:53:25.522Z,20.33
2023-03-18T18:55:57.214Z,20.14
2023-03-18T18:58:30.896Z,20.71
2023-03-18T19:01:01.219Z,19.95
2023-03-18T19:03:32.425Z,19.95
2023-03-18T19:06:04.822Z,20.90
2023-03-18T19:08:36.722Z,19.38
2023-03-18T19:11:10.388Z,18.43
2023-03-18T19:13:40.182Z,19.19
2023-03-18T19:16:28.033Z,19.95
2023-03-18T19:18:59.034Z,19.76
2023-03-18T19:21:27.339Z,18.62
2023-03-18T19:23:54.857Z,21.66
2023-03-18T19:26:23.224Z,25.46
2023-03-18T19:28:58.866Z,25.27
2023-03-18T19:31:35.050Z,26.60
2023-03-18T19:34:16.356Z,26.98
2023-03-18T19:36:49.494Z,29.45
2023-03-18T19:39:22.021Z,30.40
2023-03-18T19:41:52.743Z,29.83
2023-03-18T19:44:26.115Z,27.93
2023-03-18T19:47:01.489Z,27.55
2023-03-18T19:49:35.300Z,27.93
2023-03-18T19:52:25.372Z,28.50
2023-03-18T19:54:55.666Z,28.69
2023-03-18T19:57:31.242Z,28.69
2023-03-18T20:00:05.862Z,25.46
2023-03-18T20:02:36.024Z,23.18
2023-03-18T20:05:21.319Z,21.47
2023-03-18T20:07:51.236Z,18.43
2023-03-18T20:10:20.666Z,17.48
2023-03-18T20:12:50.958Z,16.34
2023-03-18T20:15:24.650Z,16.91
2023-03-18T20:17:54.376Z,16.34
2023-03-18T20:20:29.012Z,16.53
2023-03-18T20:23:07.237Z,16.15
2023-03-18T20:25:44.807Z,17.67
2023-03-18T20:28:24.803Z,15.77
2023-03-18T20:30:56.735Z,16.15
2023-03-18T20:33:27.182Z,15.39
2023-03-18T20:35:56.953Z,15.58
2023-03-18T20:38:39.784Z,14.82
2023-03-18T20:41:16.119Z,15.77
2023-03-18T20:43:50.054Z,14.82
2023-03-18T20:46:23.835Z,15.58
2023-03-18T20:48:56.472Z,14.44
2023-03-18T20:51:36.102Z,15.39
2023-03-18T20:54:32.937Z,16.91
2023-03-18T20:57:03.130Z,15.58
2023-03-18T20:59:32.895Z,15.20
2023-03-18T21:02:03.050Z,15.39
2023-03-18T21:04:32.945Z,15.01
2023-03-18T21:07:02.844Z,15.39
2023-03-18T21:09:31.239Z,16.15
2023-03-18T21:12:00.196Z,14.82
2023-03-18T21:14:27.296Z,15.39
2023-03-18T21:16:56.638Z,15.01
2023-03-18T21:19:24.265Z,15.77
2023-03-18T21:21:53.440Z,14.44
2023-03-18T21:24:27.712Z,15.58
2023-03-18T21:27:04.737Z,16.53
2023-03-18T21:29:35.386Z,15.77
2023-03-18T21:32:05.677Z,16.53
2023-03-18T21:34:36.261Z,17.86
2023-03-18T21:37:16.935Z,16.91
2023-03-18T21:39:47.412Z,16.91
2023-03-18T21:42:24.265Z,17.48
2023-03-18T21:44:57.015Z,16.53
2023-03-18T21:47:27.423Z,17.48
2023-03-18T21:49:57.073Z,16.91
2023-03-18T21:52:34.767Z,17.86
2023-03-18T21:55:06.848Z,17.48
2023-03-18T21:57:37.312Z,18.24
2023-03-18T22:00:20.165Z,19.00
2023-03-18T22:02:49.565Z,18.81
2023-03-18T22:05:21.719Z,18.24
2023-03-18T22:07:52.183Z,18.05
2023-03-18T22:10:23.632Z,18.43
2023-03-18T22:12:53.689Z,19.95
2023-03-18T22:15:23.530Z,17.86
2023-03-18T22:17:53.392Z,18.62
2023-03-18T22:20:23.346Z,19.00
2023-03-18T22:22:53.197Z,19.38
2023-03-18T22:25:36.498Z,18.05
2023-03-18T22:28:06.260Z,18.62
2023-03-18T22:30:36.030Z,19.57
2023-03-18T22:33:06.804Z,18.62
2023-03-18T22:35:37.173Z,20.14
2023-03-18T22:38:14.459Z,20.52
2023-03-18T22:40:47.161Z,20.71
2023-03-18T22:43:37.746Z,19.95
2023-03-18T22:46:10.072Z,19.95
2023-03-18T22:48:40.486Z,20.90
2023-03-18T22:51:24.581Z,19.38
2023-03-18T22:53:55.381Z,20.14
2023-03-18T22:56:25.325Z,20.14
2023-03-18T22:58:55.541Z,19.95
2023-03-18T23:01:31.620Z,20.33
2023-03-18T23:04:01.408Z,20.71
2023-03-18T23:06:31.654Z,20.71
2023-03-18T23:09:01.461Z,19.95
2023-03-18T23:11:31.270Z,19.38
2023-03-18T23:14:01.995Z,18.81
2023-03-18T23:16:31.894Z,19.38
2023-03-18T23:19:01.734Z,19.19
2023-03-18T23:21:31.746Z,20.52
2023-03-18T23:24:01.644Z,20.14
2023-03-18T23:26:31.908Z,19.57
2023-03-18T23:29:02.814Z,19.95
2023-03-18T23:31:32.764Z,19.38
2023-03-18T23:34:02.547Z,18.62
2023-03-18T23:36:32.685Z,20.52
2023-03-18T23:39:01.268Z,19.38
2023-03-18T23:41:29.146Z,20.90
2023-03-18T23:43:57.663Z,21.85
2023-03-18T23:46:26.095Z,21.66
2023-03-18T23:48:54.442Z,20.71
2023-03-18T23:51:23.030Z,22.04
2023-03-18T23:53:51.263Z,22.42
2023-03-18T23:56:19.894Z,21.66
2023-03-18T23:58:48.785Z,19.76
